Terminal Aerodrome Forecast
Issued by NWS

Current Version | Previous Version | Text Only | Print | Product List | Glossary On
Versions: 1 2 3 4 5 6 7 8 9 10 11 12 13
000 FTUS41 KILN 292300 RRA TAFLUK TAF KLUK 292343Z 3000/3024 21008KT P6SM -SHRA BKN050 OVC100 FM300500 25009KT P6SM SCT028 BKN045 FM300800 29007KT P6SM SCT025 TEMPO 3010/3012 BKN025 FM301800 27010KT P6SM SCT045=

USA.gov is the U.S. government's official web portal to all federal, state and local government web resources and services.